Terminal Aerodrome Forecast
Issued by NWS Albany, NY

Home | Current Version | Previous Version | Text Only | Print | Product List | Glossary On
Versions: 1 2 3 4 5 6 7 8 9 10 11 12 13 14 15 16 17 18 19
000
FTUS41 KALY 021146
TAFALB
TAF
KALB 021146Z 0212/0312 00000KT P6SM SKC
      TEMPO 0212/0213 5SM BR FEW005
     FM021500 29005KT P6SM FEW040
     FM030000 VRB03KT 6SM BR FEW035=

USA.gov is the U.S. government's official web portal to all federal, state and local government web resources and services.